createdAt,value
2023-08-12T00:04:32.439Z,20.33
2023-08-12T00:09:35.467Z,20.30
2023-08-12T00:14:38.668Z,21.60
2023-08-12T00:19:43.503Z,19.98
2023-08-12T00:24:46.802Z,19.17
2023-08-12T00:29:50.663Z,23.80
2023-08-12T00:34:55.035Z,22.65
2023-08-12T00:39:58.068Z,25.00
2023-08-12T00:45:01.141Z,20.52
2023-08-12T00:50:06.292Z,21.55
2023-08-12T00:55:09.759Z,21.25
2023-08-12T01:00:13.886Z,21.35
2023-08-12T01:05:18.424Z,22.88
2023-08-12T01:10:23.347Z,24.52
2023-08-12T01:15:27.487Z,26.23
2023-08-12T01:20:32.604Z,22.75
2023-08-12T01:25:37.073Z,22.10
2023-08-12T01:30:49.042Z,20.50
2023-08-12T01:40:57.172Z,19.40
2023-08-12T01:46:00.578Z,19.67
2023-08-12T01:51:04.270Z,21.70
2023-08-12T01:56:08.876Z,20.23
2023-08-12T02:01:12.064Z,18.60
2023-08-12T02:06:15.142Z,23.60
2023-08-12T02:11:19.866Z,18.98
2023-08-12T02:16:23.075Z,20.35
2023-08-12T02:21:46.182Z,17.08
2023-08-12T02:26:50.723Z,18.15
2023-08-12T02:31:53.813Z,20.75
2023-08-12T02:36:57.022Z,24.40
2023-08-12T02:42:01.633Z,20.33
2023-08-12T02:47:04.679Z,22.30
2023-08-12T02:52:07.985Z,20.60
2023-08-12T02:57:12.809Z,17.92
2023-08-12T03:02:17.660Z,17.98
2023-08-12T03:07:20.774Z,16.80
2023-08-12T03:12:25.458Z,17.20
2023-08-12T03:17:28.696Z,19.75
2023-08-12T03:22:31.860Z,18.90
2023-08-12T03:27:36.579Z,19.60
2023-08-12T03:32:39.727Z,20.40
2023-08-12T03:37:42.820Z,18.63
2023-08-12T03:42:47.459Z,17.05
2023-08-12T03:47:50.693Z,17.30
2023-08-12T03:52:53.876Z,20.23
2023-08-12T03:57:58.244Z,18.00
2023-08-12T04:03:01.762Z,19.23
2023-08-12T04:08:05.200Z,18.98
2023-08-12T04:13:09.640Z,18.83
2023-08-12T04:18:12.796Z,14.82
2023-08-12T04:23:15.945Z,17.67
2023-08-12T04:28:20.694Z,20.33
2023-08-12T04:33:23.928Z,15.20
2023-08-12T04:38:27.481Z,15.93
2023-08-12T04:43:31.951Z,13.85
2023-08-12T04:48:35.058Z,14.93
2023-08-12T04:53:38.085Z,17.98
2023-08-12T04:58:42.764Z,19.02
2023-08-12T05:03:45.988Z,21.92
2023-08-12T05:08:49.222Z,25.63
2023-08-12T05:13:53.725Z,16.88
2023-08-12T05:18:56.828Z,19.48
2023-08-12T05:24:00.086Z,17.38
2023-08-12T05:29:04.930Z,17.08
2023-08-12T05:34:08.036Z,17.58
2023-08-12T05:39:11.543Z,19.15
2023-08-12T05:44:16.900Z,15.73
2023-08-12T05:49:20.042Z,15.05
2023-08-12T05:54:23.200Z,15.75
2023-08-12T05:59:28.311Z,17.00
2023-08-12T06:04:31.786Z,14.00
2023-08-12T06:09:34.951Z,17.17
2023-08-12T06:14:40.055Z,16.58
2023-08-12T06:19:43.167Z,15.30
2023-08-12T06:24:46.277Z,16.13
2023-08-12T06:29:50.980Z,14.60
2023-08-12T06:34:54.357Z,16.67
2023-08-12T06:39:57.600Z,15.50
2023-08-12T06:45:03.393Z,16.15
2023-08-12T06:50:08.332Z,14.07
2023-08-12T06:55:11.599Z,14.20
2023-08-12T07:00:16.481Z,13.48
2023-08-12T07:05:19.663Z,15.18
2023-08-12T07:10:24.243Z,13.00
2023-08-12T07:15:28.836Z,17.23
2023-08-12T07:20:32.271Z,13.07
2023-08-12T07:25:35.498Z,13.80
2023-08-12T07:30:39.914Z,16.58
2023-08-12T07:35:43.153Z,15.80
2023-08-12T07:40:46.254Z,15.30
2023-08-12T07:46:08.387Z,17.38
2023-08-12T07:51:12.321Z,17.73
2023-08-12T07:56:15.430Z,13.48
2023-08-12T08:01:20.236Z,12.77
2023-08-12T08:06:24.760Z,14.52
2023-08-12T08:11:28.083Z,17.77
2023-08-12T08:16:33.004Z,13.38
2023-08-12T08:21:36.201Z,13.57
2023-08-12T08:26:39.567Z,14.20
2023-08-12T08:31:45.243Z,12.75
2023-08-12T08:36:48.497Z,15.70
2023-08-12T08:41:52.100Z,17.27
2023-08-12T08:46:57.277Z,14.10
2023-08-12T08:52:01.191Z,19.75
2023-08-12T08:57:11.248Z,14.13
2023-08-12T09:02:25.974Z,18.15
2023-08-12T09:07:30.476Z,12.98
2023-08-12T09:17:46.478Z,13.07
2023-08-12T09:22:57.364Z,18.45
2023-08-12T09:28:01.295Z,15.93
2023-08-12T09:33:08.525Z,14.77
2023-08-12T09:38:14.341Z,19.38
2023-08-12T09:43:17.970Z,21.27
2023-08-12T09:48:23.325Z,21.10
2023-08-12T09:53:26.594Z,19.35
2023-08-12T09:58:31.444Z,17.02
2023-08-12T10:03:36.396Z,16.13
2023-08-12T10:08:39.951Z,15.77
2023-08-12T10:13:43.494Z,15.18
2023-08-12T10:18:48.696Z,18.63
2023-08-12T10:23:52.820Z,15.63
2023-08-12T10:28:57.374Z,18.40
2023-08-12T10:34:02.070Z,16.10
2023-08-12T10:39:10.370Z,16.77
2023-08-12T10:44:13.532Z,17.98
2023-08-12T10:49:18.105Z,19.52
2023-08-12T10:54:28.341Z,16.17
2023-08-12T10:59:49.712Z,19.95
2023-08-12T11:04:56.533Z,18.17
2023-08-12T11:10:01.653Z,19.98
2023-08-12T11:15:06.533Z,16.42
2023-08-12T11:20:12.220Z,18.35
2023-08-12T11:25:16.865Z,20.20
2023-08-12T11:30:21.751Z,17.25
2023-08-12T11:35:26.463Z,17.52
2023-08-12T11:40:30.518Z,14.90
2023-08-12T11:45:33.820Z,19.73
2023-08-12T11:50:38.445Z,18.02
2023-08-12T11:55:41.709Z,19.83
2023-08-12T12:00:45.044Z,17.13
2023-08-12T12:05:50.005Z,18.10
2023-08-12T12:10:53.283Z,22.58
2023-08-12T12:15:56.756Z,18.17
2023-08-12T12:21:01.942Z,14.73
2023-08-12T12:26:05.811Z,17.95
2023-08-12T12:31:09.335Z,15.93
2023-08-12T12:36:14.100Z,16.65
2023-08-12T12:41:17.298Z,20.75
2023-08-12T12:46:20.641Z,15.10
2023-08-12T12:51:25.142Z,15.77
2023-08-12T12:56:28.410Z,15.45
2023-08-12T13:01:31.704Z,20.55
2023-08-12T13:06:36.249Z,14.80
2023-08-12T13:11:39.285Z,14.82
2023-08-12T13:16:42.522Z,16.38
2023-08-12T13:21:47.026Z,16.58
2023-08-12T13:26:50.387Z,15.70
2023-08-12T13:31:53.602Z,13.98
2023-08-12T13:36:58.057Z,13.50
2023-08-12T13:42:01.189Z,14.43
2023-08-12T13:47:04.264Z,14.68
2023-08-12T13:52:08.811Z,16.38
2023-08-12T13:57:13.109Z,14.07
2023-08-12T14:02:16.313Z,14.88
2023-08-12T14:07:22.366Z,15.30
2023-08-12T14:12:25.666Z,19.63
2023-08-12T14:17:28.742Z,15.40
2023-08-12T14:22:33.288Z,12.88
2023-08-12T14:27:36.294Z,16.25
2023-08-12T14:32:39.508Z,15.45
2023-08-12T14:37:44.130Z,16.13
2023-08-12T14:42:47.335Z,15.45
2023-08-12T14:47:50.498Z,13.43
2023-08-12T14:52:55.028Z,11.20
2023-08-12T14:57:58.079Z,10.57
2023-08-12T15:03:01.245Z,11.13
2023-08-12T15:08:06.068Z,12.48
2023-08-12T15:13:09.775Z,9.10
2023-08-12T15:18:12.816Z,10.63
2023-08-12T15:23:17.443Z,13.23
2023-08-12T15:28:21.209Z,12.20
2023-08-12T15:33:24.732Z,10.55
2023-08-12T15:38:29.313Z,14.88
2023-08-12T15:43:32.349Z,13.00
2023-08-12T15:48:35.606Z,18.30
2023-08-12T15:53:40.172Z,13.98
2023-08-12T15:58:43.390Z,15.75
2023-08-12T16:03:46.686Z,13.23
2023-08-12T16:09:05.544Z,15.50
2023-08-12T16:14:14.631Z,14.68
2023-08-12T16:19:17.627Z,15.30
2023-08-12T16:24:22.178Z,18.27
2023-08-12T16:29:25.375Z,16.35
2023-08-12T16:34:28.724Z,13.80
2023-08-12T16:39:33.465Z,15.82
2023-08-12T16:44:36.595Z,14.80
2023-08-12T16:49:39.900Z,13.73
2023-08-12T16:54:44.404Z,17.27
2023-08-12T16:59:47.586Z,18.85
2023-08-12T17:04:50.740Z,17.38
2023-08-12T17:09:55.428Z,16.60
2023-08-12T17:14:58.577Z,15.77
2023-08-12T17:20:01.665Z,14.60
2023-08-12T17:25:07.408Z,14.70
2023-08-12T17:30:10.883Z,21.67
2023-08-12T17:35:14.313Z,19.30
2023-08-12T17:40:23.604Z,19.55
2023-08-12T17:45:26.768Z,16.90
2023-08-12T17:50:29.901Z,17.02
2023-08-12T17:55:34.562Z,17.90
2023-08-12T18:00:38.029Z,15.75
2023-08-12T18:05:41.180Z,14.77
2023-08-12T18:10:45.967Z,20.50
2023-08-12T18:15:50.078Z,18.90
2023-08-12T18:20:53.485Z,17.50
2023-08-12T18:25:58.000Z,17.90
2023-08-12T18:31:01.046Z,19.05
2023-08-12T18:36:04.234Z,18.83
2023-08-12T18:41:08.768Z,19.40
2023-08-12T18:46:12.000Z,19.73
2023-08-12T18:51:15.252Z,24.90
2023-08-12T18:56:19.765Z,23.88
2023-08-12T19:01:23.344Z,21.95
2023-08-12T19:06:26.620Z,21.10
2023-08-12T19:11:31.315Z,19.95
2023-08-12T19:16:34.606Z,22.10
2023-08-12T19:21:37.878Z,21.08
2023-08-12T19:26:42.588Z,18.80
2023-08-12T19:31:45.880Z,22.38
2023-08-12T19:36:49.027Z,22.85
2023-08-12T19:41:53.879Z,18.13
2023-08-12T19:46:57.314Z,26.27
2023-08-12T19:52:00.588Z,26.25
2023-08-12T19:57:05.224Z,21.33
2023-08-12T20:02:08.314Z,24.98
2023-08-12T20:07:11.531Z,23.70
2023-08-12T20:12:16.435Z,24.95
2023-08-12T20:17:21.572Z,23.13
2023-08-12T20:22:25.116Z,21.73
2023-08-12T20:27:29.705Z,22.30
2023-08-12T20:32:32.955Z,22.58
2023-08-12T20:37:36.905Z,25.17
2023-08-12T20:42:41.459Z,26.45
2023-08-12T20:47:44.978Z,20.30
2023-08-12T20:52:48.187Z,22.92
2023-08-12T20:57:52.542Z,21.33
2023-08-12T21:02:55.649Z,24.27
2023-08-12T21:07:58.746Z,23.48
2023-08-12T21:13:03.466Z,20.98
2023-08-12T21:18:07.327Z,20.13
2023-08-12T21:23:10.523Z,25.13
2023-08-12T21:28:15.036Z,23.02
2023-08-12T21:33:18.114Z,25.90
2023-08-12T21:38:21.854Z,23.98
2023-08-12T21:43:26.562Z,25.00
2023-08-12T21:48:29.995Z,28.98
2023-08-12T21:53:33.140Z,29.35
2023-08-12T21:58:37.576Z,28.05
2023-08-12T22:03:40.878Z,33.95
2023-08-12T22:08:43.962Z,34.75
2023-08-12T22:13:48.536Z,41.17
2023-08-12T22:18:51.754Z,35.47
2023-08-12T22:23:55.010Z,36.97
2023-08-12T22:28:59.401Z,36.08
2023-08-12T22:34:05.663Z,38.33
2023-08-12T22:39:09.099Z,38.10
2023-08-12T22:44:13.692Z,36.83
2023-08-12T22:49:16.914Z,37.10
2023-08-12T22:54:19.934Z,36.47
2023-08-12T22:59:24.501Z,40.28
2023-08-12T23:04:27.663Z,47.80
2023-08-12T23:09:30.648Z,40.78
2023-08-12T23:14:35.240Z,36.47
2023-08-12T23:19:38.481Z,41.80
2023-08-12T23:24:41.491Z,43.35
2023-08-12T23:29:46.057Z,44.28
2023-08-12T23:34:49.102Z,43.10
2023-08-12T23:39:52.283Z,47.05
2023-08-12T23:44:56.880Z,48.30
2023-08-12T23:50:00.086Z,50.97
2023-08-12T23:55:03.405Z,45.38
